sensor_id;sensor_type;location;lat;lon;timestamp;temperature;humidity
14252;DHT22;7210;51.502;10.722;2023-10-19T00:00:31;7.10;99.90
14252;DHT22;7210;51.502;10.722;2023-10-19T00:03:03;7.10;99.90
14252;DHT22;7210;51.502;10.722;2023-10-19T00:05:34;7.10;99.90
14252;DHT22;7210;51.502;10.722;2023-10-19T00:08:01;7.00;99.90
14252;DHT22;7210;51.502;10.722;2023-10-19T00:10:31;7.00;99.90
14252;DHT22;7210;51.502;10.722;2023-10-19T00:13:00;7.00;99.90
14252;DHT22;7210;51.502;10.722;2023-10-19T00:15:31;7.00;99.90
14252;DHT22;7210;51.502;10.722;2023-10-19T00:17:58;7.00;99.90
14252;DHT22;7210;51.502;10.722;2023-10-19T00:20:35;7.00;99.90
14252;DHT22;7210;51.502;10.722;2023-10-19T00:23:13;7.00;99.90
14252;DHT22;7210;51.502;10.722;2023-10-19T00:25:44;7.00;99.90
14252;DHT22;7210;51.502;10.722;2023-10-19T00:28:12;6.90;99.90
14252;DHT22;7210;51.502;10.722;2023-10-19T00:30:44;6.90;99.90
14252;DHT22;7210;51.502;10.722;2023-10-19T00:33:12;6.90;99.90
14252;DHT22;7210;51.502;10.722;2023-10-19T00:35:45;7.00;99.90
14252;DHT22;7210;51.502;10.722;2023-10-19T00:38:23;6.90;99.90
14252;DHT22;7210;51.502;10.722;2023-10-19T00:41:22;6.90;99.90
14252;DHT22;7210;51.502;10.722;2023-10-19T00:43:54;7.00;99.90
14252;DHT22;7210;51.502;10.722;2023-10-19T00:46:28;6.90;99.90
14252;DHT22;7210;51.502;10.722;2023-10-19T00:49:00;6.90;99.90
14252;DHT22;7210;51.502;10.722;2023-10-19T00:51:33;6.90;99.90
14252;DHT22;7210;51.502;10.722;2023-10-19T00:54:10;6.90;99.90
14252;DHT22;7210;51.502;10.722;2023-10-19T00:56:41;6.90;99.90
14252;DHT22;7210;51.502;10.722;2023-10-19T00:59:12;6.90;99.90
14252;DHT22;7210;51.502;10.722;2023-10-19T01:01:41;7.00;99.90
14252;DHT22;7210;51.502;10.722;2023-10-19T01:04:11;7.00;99.90
14252;DHT22;7210;51.502;10.722;2023-10-19T01:06:42;6.90;99.90
14252;DHT22;7210;51.502;10.722;2023-10-19T01:09:14;7.00;99.90
14252;DHT22;7210;51.502;10.722;2023-10-19T01:11:44;7.00;99.90
14252;DHT22;7210;51.502;10.722;2023-10-19T01:14:18;6.90;99.90
14252;DHT22;7210;51.502;10.722;2023-10-19T01:16:46;6.90;99.90
14252;DHT22;7210;51.502;10.722;2023-10-19T01:19:15;6.90;99.90
14252;DHT22;7210;51.502;10.722;2023-10-19T01:21:45;6.90;99.90
14252;DHT22;7210;51.502;10.722;2023-10-19T01:24:20;6.90;99.90
14252;DHT22;7210;51.502;10.722;2023-10-19T01:26:53;6.90;99.90
14252;DHT22;7210;51.502;10.722;2023-10-19T01:29:22;6.90;99.90
14252;DHT22;7210;51.502;10.722;2023-10-19T01:31:52;6.90;99.90
14252;DHT22;7210;51.502;10.722;2023-10-19T01:34:30;6.90;99.90
14252;DHT22;7210;51.502;10.722;2023-10-19T01:37:02;6.90;99.90
14252;DHT22;7210;51.502;10.722;2023-10-19T01:39:31;7.00;99.90
14252;DHT22;7210;51.502;10.722;2023-10-19T01:42:01;6.90;99.90
14252;DHT22;7210;51.502;10.722;2023-10-19T01:44:30;6.90;99.90
14252;DHT22;7210;51.502;10.722;2023-10-19T01:46:57;6.90;99.90
14252;DHT22;7210;51.502;10.722;2023-10-19T01:49:26;6.90;99.90
14252;DHT22;7210;51.502;10.722;2023-10-19T01:51:53;6.90;99.90
14252;DHT22;7210;51.502;10.722;2023-10-19T01:54:21;6.90;99.90
14252;DHT22;7210;51.502;10.722;2023-10-19T01:56:52;6.90;99.90
14252;DHT22;7210;51.502;10.722;2023-10-19T01:59:22;6.90;99.90
14252;DHT22;7210;51.502;10.722;2023-10-19T02:01:48;6.90;99.90
14252;DHT22;7210;51.502;10.722;2023-10-19T02:04:18;6.90;99.90
14252;DHT22;7210;51.502;10.722;2023-10-19T02:06:47;6.90;99.90
14252;DHT22;7210;51.502;10.722;2023-10-19T02:09:16;6.80;99.90
14252;DHT22;7210;51.502;10.722;2023-10-19T02:11:58;6.90;99.90
14252;DHT22;7210;51.502;10.722;2023-10-19T02:14:27;6.80;99.90
14252;DHT22;7210;51.502;10.722;2023-10-19T02:16:57;6.80;99.90
14252;DHT22;7210;51.502;10.722;2023-10-19T02:19:25;6.90;99.90
14252;DHT22;7210;51.502;10.722;2023-10-19T02:21:54;6.90;99.90
14252;DHT22;7210;51.502;10.722;2023-10-19T02:24:26;6.90;99.90
14252;DHT22;7210;51.502;10.722;2023-10-19T02:26:55;6.90;99.90
14252;DHT22;7210;51.502;10.722;2023-10-19T02:29:23;6.90;99.90
14252;DHT22;7210;51.502;10.722;2023-10-19T02:31:51;6.90;99.90
14252;DHT22;7210;51.502;10.722;2023-10-19T02:34:19;6.90;99.90
14252;DHT22;7210;51.502;10.722;2023-10-19T02:36:50;6.90;99.90
14252;DHT22;7210;51.502;10.722;2023-10-19T02:39:17;6.90;99.90
14252;DHT22;7210;51.502;10.722;2023-10-19T02:41:45;6.90;99.90
14252;DHT22;7210;51.502;10.722;2023-10-19T02:44:14;6.90;99.90
14252;DHT22;7210;51.502;10.722;2023-10-19T02:46:47;6.90;99.90
14252;DHT22;7210;51.502;10.722;2023-10-19T02:49:16;6.90;99.90
14252;DHT22;7210;51.502;10.722;2023-10-19T02:51:45;6.90;99.90
14252;DHT22;7210;51.502;10.722;2023-10-19T02:54:12;6.90;99.90
14252;DHT22;7210;51.502;10.722;2023-10-19T02:56:44;6.90;99.90
14252;DHT22;7210;51.502;10.722;2023-10-19T02:59:15;6.90;99.90
14252;DHT22;7210;51.502;10.722;2023-10-19T03:01:42;6.90;99.90
14252;DHT22;7210;51.502;10.722;2023-10-19T03:04:12;6.90;99.90
14252;DHT22;7210;51.502;10.722;2023-10-19T03:06:39;6.90;99.90
14252;DHT22;7210;51.502;10.722;2023-10-19T03:09:09;6.80;99.90
14252;DHT22;7210;51.502;10.722;2023-10-19T03:11:39;6.80;90.30
14252;DHT22;7210;51.502;10.722;2023-10-19T03:14:07;6.80;77.10
14252;DHT22;7210;51.502;10.722;2023-10-19T03:16:35;6.80;65.10
14252;DHT22;7210;51.502;10.722;2023-10-19T03:19:02;6.80;56.00
14252;DHT22;7210;51.502;10.722;2023-10-19T03:21:31;6.90;52.90
14252;DHT22;7210;51.502;10.722;2023-10-19T03:24:07;6.80;43.60
14252;DHT22;7210;51.502;10.722;2023-10-19T03:26:38;6.80;36.90
14252;DHT22;7210;51.502;10.722;2023-10-19T03:29:09;6.80;33.70
14252;DHT22;7210;51.502;10.722;2023-10-19T03:31:39;6.80;30.30
14252;DHT22;7210;51.502;10.722;2023-10-19T03:34:11;6.80;29.30
14252;DHT22;7210;51.502;10.722;2023-10-19T03:36:40;6.80;18.00
14252;DHT22;7210;51.502;10.722;2023-10-19T03:39:08;6.80;8.60
14252;DHT22;7210;51.502;10.722;2023-10-19T03:41:41;6.80;3.00
14252;DHT22;7210;51.502;10.722;2023-10-19T03:44:09;6.80;1.00
14252;DHT22;7210;51.502;10.722;2023-10-19T03:46:42;6.90;1.00
14252;DHT22;7210;51.502;10.722;2023-10-19T03:49:19;6.80;1.00
14252;DHT22;7210;51.502;10.722;2023-10-19T03:51:52;6.80;1.00
14252;DHT22;7210;51.502;10.722;2023-10-19T03:54:26;6.80;1.00
14252;DHT22;7210;51.502;10.722;2023-10-19T03:56:56;6.80;1.00
14252;DHT22;7210;51.502;10.722;2023-10-19T03:59:27;6.80;1.00
14252;DHT22;7210;51.502;10.722;2023-10-19T04:01:57;6.90;1.00
14252;DHT22;7210;51.502;10.722;2023-10-19T04:04:25;6.90;1.00
14252;DHT22;7210;51.502;10.722;2023-10-19T04:06:58;6.90;1.00
14252;DHT22;7210;51.502;10.722;2023-10-19T04:09:26;6.90;1.00
14252;DHT22;7210;51.502;10.722;2023-10-19T04:11:55;6.90;1.00
14252;DHT22;7210;51.502;10.722;2023-10-19T04:14:26;6.90;1.00
14252;DHT22;7210;51.502;10.722;2023-10-19T04:16:56;6.90;1.00
14252;DHT22;7210;51.502;10.722;2023-10-19T04:19:24;6.90;1.00
14252;DHT22;7210;51.502;10.722;2023-10-19T04:21:54;7.00;1.00
14252;DHT22;7210;51.502;10.722;2023-10-19T04:24:22;7.00;1.00
14252;DHT22;7210;51.502;10.722;2023-10-19T04:26:49;6.90;1.00
14252;DHT22;7210;51.502;10.722;2023-10-19T04:29:16;6.90;1.00
14252;DHT22;7210;51.502;10.722;2023-10-19T04:31:45;6.90;1.00
14252;DHT22;7210;51.502;10.722;2023-10-19T04:34:21;6.90;1.00
14252;DHT22;7210;51.502;10.722;2023-10-19T04:36:48;7.00;1.00
14252;DHT22;7210;51.502;10.722;2023-10-19T04:39:15;7.00;1.00
14252;DHT22;7210;51.502;10.722;2023-10-19T04:41:46;7.00;1.00
14252;DHT22;7210;51.502;10.722;2023-10-19T04:44:15;7.00;1.00
14252;DHT22;7210;51.502;10.722;2023-10-19T04:46:42;7.00;1.00
14252;DHT22;7210;51.502;10.722;2023-10-19T04:49:09;7.00;1.00
14252;DHT22;7210;51.502;10.722;2023-10-19T04:51:36;7.00;1.00
14252;DHT22;7210;51.502;10.722;2023-10-19T04:54:04;7.00;1.00
14252;DHT22;7210;51.502;10.722;2023-10-19T04:56:34;7.00;1.00
14252;DHT22;7210;51.502;10.722;2023-10-19T04:59:03;7.00;1.00
14252;DHT22;7210;51.502;10.722;2023-10-19T05:01:30;7.00;1.00
14252;DHT22;7210;51.502;10.722;2023-10-19T05:03:59;7.10;1.00
14252;DHT22;7210;51.502;10.722;2023-10-19T05:06:26;7.00;1.00
14252;DHT22;7210;51.502;10.722;2023-10-19T05:08:53;7.00;1.00
14252;DHT22;7210;51.502;10.722;2023-10-19T05:11:20;7.10;1.00
14252;DHT22;7210;51.502;10.722;2023-10-19T05:13:47;7.10;1.00
14252;DHT22;7210;51.502;10.722;2023-10-19T05:16:15;7.10;1.00
14252;DHT22;7210;51.502;10.722;2023-10-19T05:18:42;7.10;1.00
14252;DHT22;7210;51.502;10.722;2023-10-19T05:21:09;7.10;1.00
14252;DHT22;7210;51.502;10.722;2023-10-19T05:23:38;7.10;1.00
14252;DHT22;7210;51.502;10.722;2023-10-19T05:26:05;7.10;1.00
14252;DHT22;7210;51.502;10.722;2023-10-19T05:28:32;7.10;1.00
14252;DHT22;7210;51.502;10.722;2023-10-19T05:30:59;7.10;1.00
14252;DHT22;7210;51.502;10.722;2023-10-19T05:33:28;7.10;1.00
14252;DHT22;7210;51.502;10.722;2023-10-19T05:35:55;7.10;1.00
14252;DHT22;7210;51.502;10.722;2023-10-19T05:38:23;7.10;1.00
14252;DHT22;7210;51.502;10.722;2023-10-19T05:40:50;7.10;1.00
14252;DHT22;7210;51.502;10.722;2023-10-19T05:43:17;7.10;1.00
14252;DHT22;7210;51.502;10.722;2023-10-19T05:45:45;7.10;1.00
14252;DHT22;7210;51.502;10.722;2023-10-19T05:48:19;7.10;1.00
14252;DHT22;7210;51.502;10.722;2023-10-19T05:50:51;7.20;1.00
14252;DHT22;7210;51.502;10.722;2023-10-19T05:53:18;7.20;1.00
14252;DHT22;7210;51.502;10.722;2023-10-19T05:55:48;7.20;1.00
14252;DHT22;7210;51.502;10.722;2023-10-19T05:58:15;7.20;1.00
14252;DHT22;7210;51.502;10.722;2023-10-19T06:00:42;7.20;1.00
14252;DHT22;7210;51.502;10.722;2023-10-19T06:03:08;7.20;1.00
14252;DHT22;7210;51.502;10.722;2023-10-19T06:05:36;7.20;1.00
14252;DHT22;7210;51.502;10.722;2023-10-19T06:08:04;7.20;1.00
14252;DHT22;7210;51.502;10.722;2023-10-19T06:10:31;7.20;1.00
14252;DHT22;7210;51.502;10.722;2023-10-19T06:12:59;7.30;1.00
14252;DHT22;7210;51.502;10.722;2023-10-19T06:15:26;7.30;1.00
14252;DHT22;7210;51.502;10.722;2023-10-19T06:17:54;7.30;1.00
14252;DHT22;7210;51.502;10.722;2023-10-19T06:20:27;7.30;1.00
14252;DHT22;7210;51.502;10.722;2023-10-19T06:22:54;7.30;1.00
14252;DHT22;7210;51.502;10.722;2023-10-19T06:25:24;7.30;1.00
14252;DHT22;7210;51.502;10.722;2023-10-19T06:27:52;7.30;1.00
14252;DHT22;7210;51.502;10.722;2023-10-19T06:30:22;7.40;1.00
14252;DHT22;7210;51.502;10.722;2023-10-19T06:32:51;7.40;1.00
14252;DHT22;7210;51.502;10.722;2023-10-19T06:35:18;7.40;1.00
14252;DHT22;7210;51.502;10.722;2023-10-19T06:37:46;7.30;1.00
14252;DHT22;7210;51.502;10.722;2023-10-19T06:40:14;7.30;1.00
14252;DHT22;7210;51.502;10.722;2023-10-19T06:42:43;7.40;1.00
14252;DHT22;7210;51.502;10.722;2023-10-19T06:45:11;7.40;1.00
14252;DHT22;7210;51.502;10.722;2023-10-19T06:47:51;7.40;1.00
14252;DHT22;7210;51.502;10.722;2023-10-19T06:50:20;7.40;1.00
14252;DHT22;7210;51.502;10.722;2023-10-19T06:52:51;7.40;1.00
14252;DHT22;7210;51.502;10.722;2023-10-19T06:55:21;7.50;1.00
14252;DHT22;7210;51.502;10.722;2023-10-19T06:57:50;7.40;1.00
14252;DHT22;7210;51.502;10.722;2023-10-19T07:00:19;7.50;1.00
14252;DHT22;7210;51.502;10.722;2023-10-19T07:02:48;7.50;1.00
14252;DHT22;7210;51.502;10.722;2023-10-19T07:05:17;7.50;1.00
14252;DHT22;7210;51.502;10.722;2023-10-19T07:07:46;7.50;1.00
14252;DHT22;7210;51.502;10.722;2023-10-19T07:10:14;7.60;1.00
14252;DHT22;7210;51.502;10.722;2023-10-19T07:12:43;7.60;1.00
14252;DHT22;7210;51.502;10.722;2023-10-19T07:15:12;7.60;1.00
14252;DHT22;7210;51.502;10.722;2023-10-19T07:17:39;7.60;1.00
14252;DHT22;7210;51.502;10.722;2023-10-19T07:20:08;7.60;1.00
14252;DHT22;7210;51.502;10.722;2023-10-19T07:22:47;7.60;1.00
14252;DHT22;7210;51.502;10.722;2023-10-19T07:25:14;7.60;1.00
14252;DHT22;7210;51.502;10.722;2023-10-19T07:27:41;7.70;1.00
14252;DHT22;7210;51.502;10.722;2023-10-19T07:30:22;7.70;1.00
14252;DHT22;7210;51.502;10.722;2023-10-19T07:32:52;7.70;1.00
14252;DHT22;7210;51.502;10.722;2023-10-19T07:35:23;7.80;1.00
14252;DHT22;7210;51.502;10.722;2023-10-19T07:37:51;7.80;1.00
14252;DHT22;7210;51.502;10.722;2023-10-19T07:40:19;7.80;1.00
14252;DHT22;7210;51.502;10.722;2023-10-19T07:42:46;7.90;1.00
14252;DHT22;7210;51.502;10.722;2023-10-19T07:45:15;7.90;1.00
14252;DHT22;7210;51.502;10.722;2023-10-19T07:47:46;8.00;1.00
14252;DHT22;7210;51.502;10.722;2023-10-19T07:50:14;8.00;1.00
14252;DHT22;7210;51.502;10.722;2023-10-19T07:52:42;8.00;1.00
14252;DHT22;7210;51.502;10.722;2023-10-19T07:55:11;8.00;1.00
14252;DHT22;7210;51.502;10.722;2023-10-19T07:57:38;7.90;1.00
14252;DHT22;7210;51.502;10.722;2023-10-19T08:00:07;8.00;1.00
14252;DHT22;7210;51.502;10.722;2023-10-19T08:02:35;8.10;1.00
14252;DHT22;7210;51.502;10.722;2023-10-19T08:05:05;8.10;1.00
14252;DHT22;7210;51.502;10.722;2023-10-19T08:07:33;8.20;1.00
14252;DHT22;7210;51.502;10.722;2023-10-19T08:10:02;8.20;1.00
14252;DHT22;7210;51.502;10.722;2023-10-19T08:12:31;8.30;1.00
14252;DHT22;7210;51.502;10.722;2023-10-19T08:14:59;8.30;1.00
14252;DHT22;7210;51.502;10.722;2023-10-19T08:17:26;8.30;1.00
14252;DHT22;7210;51.502;10.722;2023-10-19T08:19:53;8.30;1.00
14252;DHT22;7210;51.502;10.722;2023-10-19T08:22:22;8.40;1.00
14252;DHT22;7210;51.502;10.722;2023-10-19T08:24:49;8.40;1.00
14252;DHT22;7210;51.502;10.722;2023-10-19T08:27:17;8.40;1.00
14252;DHT22;7210;51.502;10.722;2023-10-19T08:29:45;8.40;1.00
14252;DHT22;7210;51.502;10.722;2023-10-19T08:32:12;8.50;1.00
14252;DHT22;7210;51.502;10.722;2023-10-19T08:34:45;8.60;1.00
14252;DHT22;7210;51.502;10.722;2023-10-19T08:37:15;8.60;1.00
14252;DHT22;7210;51.502;10.722;2023-10-19T08:39:43;8.60;1.00
14252;DHT22;7210;51.502;10.722;2023-10-19T08:42:10;8.60;1.00
14252;DHT22;7210;51.502;10.722;2023-10-19T08:44:39;8.70;1.00
14252;DHT22;7210;51.502;10.722;2023-10-19T08:47:06;8.70;1.00
14252;DHT22;7210;51.502;10.722;2023-10-19T08:49:34;8.70;1.00
14252;DHT22;7210;51.502;10.722;2023-10-19T08:52:03;8.70;1.00
14252;DHT22;7210;51.502;10.722;2023-10-19T08:54:31;8.80;1.00
14252;DHT22;7210;51.502;10.722;2023-10-19T08:57:00;8.80;9.80
14252;DHT22;7210;51.502;10.722;2023-10-19T08:59:28;8.90;7.70
14252;DHT22;7210;51.502;10.722;2023-10-19T09:02:00;8.80;25.00
14252;DHT22;7210;51.502;10.722;2023-10-19T09:04:33;8.70;30.70
14252;DHT22;7210;51.502;10.722;2023-10-19T09:07:07;8.80;31.60
14252;DHT22;7210;51.502;10.722;2023-10-19T09:09:36;8.80;28.60
14252;DHT22;7210;51.502;10.722;2023-10-19T09:12:07;8.80;26.20
14252;DHT22;7210;51.502;10.722;2023-10-19T09:14:36;8.80;21.30
14252;DHT22;7210;51.502;10.722;2023-10-19T09:17:07;8.80;20.40
14252;DHT22;7210;51.502;10.722;2023-10-19T09:19:37;8.90;22.80
14252;DHT22;7210;51.502;10.722;2023-10-19T09:22:05;8.80;17.30
14252;DHT22;7210;51.502;10.722;2023-10-19T09:24:43;8.80;15.20
14252;DHT22;7210;51.502;10.722;2023-10-19T09:27:13;8.90;6.40
14252;DHT22;7210;51.502;10.722;2023-10-19T09:29:41;8.90;1.00
14252;DHT22;7210;51.502;10.722;2023-10-19T09:32:08;9.00;1.00
14252;DHT22;7210;51.502;10.722;2023-10-19T09:34:38;9.00;1.00
14252;DHT22;7210;51.502;10.722;2023-10-19T09:37:09;9.00;5.30
14252;DHT22;7210;51.502;10.722;2023-10-19T09:39:37;9.10;8.40
14252;DHT22;7210;51.502;10.722;2023-10-19T09:42:06;9.20;28.60
14252;DHT22;7210;51.502;10.722;2023-10-19T09:44:42;9.20;39.50
14252;DHT22;7210;51.502;10.722;2023-10-19T09:47:11;9.20;43.20
14252;DHT22;7210;51.502;10.722;2023-10-19T09:49:41;9.30;41.80
14252;DHT22;7210;51.502;10.722;2023-10-19T09:52:09;9.30;43.80
14252;DHT22;7210;51.502;10.722;2023-10-19T09:54:50;9.30;44.70
14252;DHT22;7210;51.502;10.722;2023-10-19T09:57:25;9.30;47.40
14252;DHT22;7210;51.502;10.722;2023-10-19T10:00:00;9.30;44.60
14252;DHT22;7210;51.502;10.722;2023-10-19T10:02:39;9.30;60.10
14252;DHT22;7210;51.502;10.722;2023-10-19T10:08:31;9.30;67.40
14252;DHT22;7210;51.502;10.722;2023-10-19T10:11:17;9.30;72.90
14252;DHT22;7210;51.502;10.722;2023-10-19T10:13:44;9.40;67.90
14252;DHT22;7210;51.502;10.722;2023-10-19T10:16:14;9.40;50.60
14252;DHT22;7210;51.502;10.722;2023-10-19T10:18:42;9.50;48.30
14252;DHT22;7210;51.502;10.722;2023-10-19T10:21:14;9.60;57.90
14252;DHT22;7210;51.502;10.722;2023-10-19T10:23:43;9.70;62.00
14252;DHT22;7210;51.502;10.722;2023-10-19T10:26:11;9.70;80.10
14252;DHT22;7210;51.502;10.722;2023-10-19T10:28:39;9.70;87.90
14252;DHT22;7210;51.502;10.722;2023-10-19T10:31:18;9.70;87.90
14252;DHT22;7210;51.502;10.722;2023-10-19T10:33:47;9.80;99.90
14252;DHT22;7210;51.502;10.722;2023-10-19T10:36:15;9.80;98.80
14252;DHT22;7210;51.502;10.722;2023-10-19T10:38:44;9.90;94.20
14252;DHT22;7210;51.502;10.722;2023-10-19T10:41:12;9.90;99.90
14252;DHT22;7210;51.502;10.722;2023-10-19T10:43:53;10.00;99.90
14252;DHT22;7210;51.502;10.722;2023-10-19T10:46:22;10.00;99.90
14252;DHT22;7210;51.502;10.722;2023-10-19T10:48:49;10.00;99.90
14252;DHT22;7210;51.502;10.722;2023-10-19T10:51:21;10.00;99.90
14252;DHT22;7210;51.502;10.722;2023-10-19T10:53:50;10.00;99.90
14252;DHT22;7210;51.502;10.722;2023-10-19T10:56:19;10.00;99.90
14252;DHT22;7210;51.502;10.722;2023-10-19T10:58:47;10.00;99.90
14252;DHT22;7210;51.502;10.722;2023-10-19T11:01:14;10.00;99.90
14252;DHT22;7210;51.502;10.722;2023-10-19T11:03:46;10.00;99.90
14252;DHT22;7210;51.502;10.722;2023-10-19T11:06:14;10.00;99.90
14252;DHT22;7210;51.502;10.722;2023-10-19T11:08:41;9.90;99.90
14252;DHT22;7210;51.502;10.722;2023-10-19T11:11:09;9.90;99.90
14252;DHT22;7210;51.502;10.722;2023-10-19T11:13:38;10.00;99.90
14252;DHT22;7210;51.502;10.722;2023-10-19T11:16:06;10.10;99.90
14252;DHT22;7210;51.502;10.722;2023-10-19T11:18:36;10.30;99.90
14252;DHT22;7210;51.502;10.722;2023-10-19T11:21:08;10.40;99.90
14252;DHT22;7210;51.502;10.722;2023-10-19T11:23:40;10.50;99.90
14252;DHT22;7210;51.502;10.722;2023-10-19T11:26:08;10.50;99.90
14252;DHT22;7210;51.502;10.722;2023-10-19T11:28:36;10.40;99.90
14252;DHT22;7210;51.502;10.722;2023-10-19T11:31:17;10.40;99.90
14252;DHT22;7210;51.502;10.722;2023-10-19T11:33:45;10.50;99.90
14252;DHT22;7210;51.502;10.722;2023-10-19T11:36:16;10.50;99.90
14252;DHT22;7210;51.502;10.722;2023-10-19T11:38:45;10.50;99.90
14252;DHT22;7210;51.502;10.722;2023-10-19T11:41:13;10.50;99.90
14252;DHT22;7210;51.502;10.722;2023-10-19T11:43:40;10.60;99.90
14252;DHT22;7210;51.502;10.722;2023-10-19T11:46:09;10.60;99.90
14252;DHT22;7210;51.502;10.722;2023-10-19T11:48:37;10.60;99.90
14252;DHT22;7210;51.502;10.722;2023-10-19T11:51:06;10.60;99.90
14252;DHT22;7210;51.502;10.722;2023-10-19T11:53:35;10.60;99.90
14252;DHT22;7210;51.502;10.722;2023-10-19T11:56:03;10.60;99.90
14252;DHT22;7210;51.502;10.722;2023-10-19T11:58:32;10.70;99.90
14252;DHT22;7210;51.502;10.722;2023-10-19T12:01:00;10.70;99.90
14252;DHT22;7210;51.502;10.722;2023-10-19T12:03:28;10.70;99.90
14252;DHT22;7210;51.502;10.722;2023-10-19T12:05:56;10.60;99.90
14252;DHT22;7210;51.502;10.722;2023-10-19T12:08:23;10.70;99.90
14252;DHT22;7210;51.502;10.722;2023-10-19T12:10:51;10.60;99.90
14252;DHT22;7210;51.502;10.722;2023-10-19T12:13:18;10.70;99.90
14252;DHT22;7210;51.502;10.722;2023-10-19T12:15:45;10.70;99.90
14252;DHT22;7210;51.502;10.722;2023-10-19T12:18:21;10.70;99.90
14252;DHT22;7210;51.502;10.722;2023-10-19T12:20:51;10.70;99.90
14252;DHT22;7210;51.502;10.722;2023-10-19T12:23:22;10.80;99.90
14252;DHT22;7210;51.502;10.722;2023-10-19T12:25:51;10.90;99.90
14252;DHT22;7210;51.502;10.722;2023-10-19T12:28:21;11.00;99.90
14252;DHT22;7210;51.502;10.722;2023-10-19T12:30:50;11.10;99.90
14252;DHT22;7210;51.502;10.722;2023-10-19T12:33:17;11.10;99.90
14252;DHT22;7210;51.502;10.722;2023-10-19T12:35:45;11.10;99.90
14252;DHT22;7210;51.502;10.722;2023-10-19T12:38:15;11.20;99.90
14252;DHT22;7210;51.502;10.722;2023-10-19T12:40:44;11.30;99.90
14252;DHT22;7210;51.502;10.722;2023-10-19T12:43:13;11.30;99.90
14252;DHT22;7210;51.502;10.722;2023-10-19T12:45:45;11.40;99.90
14252;DHT22;7210;51.502;10.722;2023-10-19T12:48:16;11.40;99.90
14252;DHT22;7210;51.502;10.722;2023-10-19T12:50:44;11.50;99.90
14252;DHT22;7210;51.502;10.722;2023-10-19T12:53:15;11.40;99.90
14252;DHT22;7210;51.502;10.722;2023-10-19T12:55:42;11.40;99.90
14252;DHT22;7210;51.502;10.722;2023-10-19T12:58:09;11.40;99.90
14252;DHT22;7210;51.502;10.722;2023-10-19T13:00:38;11.30;99.90
14252;DHT22;7210;51.502;10.722;2023-10-19T13:03:10;11.30;99.90
14252;DHT22;7210;51.502;10.722;2023-10-19T13:05:51;11.20;99.90
14252;DHT22;7210;51.502;10.722;2023-10-19T13:08:19;11.20;99.90
14252;DHT22;7210;51.502;10.722;2023-10-19T13:10:47;11.10;99.90
14252;DHT22;7210;51.502;10.722;2023-10-19T13:13:16;11.10;99.90
14252;DHT22;7210;51.502;10.722;2023-10-19T13:15:45;11.10;99.90
14252;DHT22;7210;51.502;10.722;2023-10-19T13:18:13;11.10;99.90
14252;DHT22;7210;51.502;10.722;2023-10-19T13:20:46;11.00;99.90
14252;DHT22;7210;51.502;10.722;2023-10-19T13:23:14;11.10;99.90
14252;DHT22;7210;51.502;10.722;2023-10-19T13:25:42;11.20;99.90
14252;DHT22;7210;51.502;10.722;2023-10-19T13:28:16;11.30;99.90
14252;DHT22;7210;51.502;10.722;2023-10-19T13:30:47;11.40;99.90
14252;DHT22;7210;51.502;10.722;2023-10-19T13:33:16;11.50;99.90
14252;DHT22;7210;51.502;10.722;2023-10-19T13:35:44;11.60;99.90
14252;DHT22;7210;51.502;10.722;2023-10-19T13:38:17;11.50;99.90
14252;DHT22;7210;51.502;10.722;2023-10-19T13:40:45;11.60;99.90
14252;DHT22;7210;51.502;10.722;2023-10-19T13:43:13;11.60;99.90
14252;DHT22;7210;51.502;10.722;2023-10-19T13:45:41;11.60;99.90
14252;DHT22;7210;51.502;10.722;2023-10-19T13:48:16;11.60;99.90
14252;DHT22;7210;51.502;10.722;2023-10-19T13:50:45;11.60;99.90
14252;DHT22;7210;51.502;10.722;2023-10-19T13:53:14;11.60;99.90
14252;DHT22;7210;51.502;10.722;2023-10-19T13:55:41;11.60;99.90
14252;DHT22;7210;51.502;10.722;2023-10-19T13:58:09;11.70;99.90
14252;DHT22;7210;51.502;10.722;2023-10-19T14:00:41;11.70;99.90
14252;DHT22;7210;51.502;10.722;2023-10-19T14:03:09;11.80;99.90
14252;DHT22;7210;51.502;10.722;2023-10-19T14:05:39;11.80;99.90
14252;DHT22;7210;51.502;10.722;2023-10-19T14:08:08;11.90;99.90
14252;DHT22;7210;51.502;10.722;2023-10-19T14:10:36;11.90;99.90
14252;DHT22;7210;51.502;10.722;2023-10-19T14:13:07;12.10;99.90
14252;DHT22;7210;51.502;10.722;2023-10-19T14:15:34;12.10;99.90
14252;DHT22;7210;51.502;10.722;2023-10-19T14:18:01;12.20;99.90
14252;DHT22;7210;51.502;10.722;2023-10-19T14:20:29;12.20;99.90
14252;DHT22;7210;51.502;10.722;2023-10-19T14:22:57;12.10;99.90
14252;DHT22;7210;51.502;10.722;2023-10-19T14:25:25;12.20;99.90
14252;DHT22;7210;51.502;10.722;2023-10-19T14:27:53;12.10;99.90
14252;DHT22;7210;51.502;10.722;2023-10-19T14:30:24;12.00;99.90
14252;DHT22;7210;51.502;10.722;2023-10-19T14:32:51;12.00;99.90
14252;DHT22;7210;51.502;10.722;2023-10-19T14:35:19;12.00;99.90
14252;DHT22;7210;51.502;10.722;2023-10-19T14:37:52;11.80;99.90
14252;DHT22;7210;51.502;10.722;2023-10-19T14:40:24;11.80;99.90
14252;DHT22;7210;51.502;10.722;2023-10-19T14:42:52;11.70;99.90
14252;DHT22;7210;51.502;10.722;2023-10-19T14:45:21;11.70;99.90
14252;DHT22;7210;51.502;10.722;2023-10-19T14:47:52;11.70;99.90
14252;DHT22;7210;51.502;10.722;2023-10-19T14:50:21;11.60;99.90
14252;DHT22;7210;51.502;10.722;2023-10-19T14:52:49;11.60;99.90
14252;DHT22;7210;51.502;10.722;2023-10-19T14:55:23;11.70;99.90
14252;DHT22;7210;51.502;10.722;2023-10-19T14:57:51;11.60;99.90
14252;DHT22;7210;51.502;10.722;2023-10-19T15:00:20;11.60;99.90
14252;DHT22;7210;51.502;10.722;2023-10-19T15:02:59;11.60;99.90
14252;DHT22;7210;51.502;10.722;2023-10-19T15:05:28;11.70;99.90
14252;DHT22;7210;51.502;10.722;2023-10-19T15:07:55;11.60;99.90
14252;DHT22;7210;51.502;10.722;2023-10-19T15:10:25;11.60;99.90
14252;DHT22;7210;51.502;10.722;2023-10-19T15:12:53;11.60;99.90
14252;DHT22;7210;51.502;10.722;2023-10-19T15:15:22;11.60;99.90
14252;DHT22;7210;51.502;10.722;2023-10-19T15:17:51;11.60;99.90
14252;DHT22;7210;51.502;10.722;2023-10-19T15:20:20;11.60;99.90
14252;DHT22;7210;51.502;10.722;2023-10-19T15:22:48;11.60;99.90
14252;DHT22;7210;51.502;10.722;2023-10-19T15:25:15;11.60;99.90
14252;DHT22;7210;51.502;10.722;2023-10-19T15:27:47;11.60;99.90
14252;DHT22;7210;51.502;10.722;2023-10-19T15:30:15;11.60;99.90
14252;DHT22;7210;51.502;10.722;2023-10-19T15:32:46;11.50;99.90
14252;DHT22;7210;51.502;10.722;2023-10-19T15:35:14;11.50;99.90
14252;DHT22;7210;51.502;10.722;2023-10-19T15:37:47;11.50;99.90
14252;DHT22;7210;51.502;10.722;2023-10-19T15:40:15;11.50;99.90
14252;DHT22;7210;51.502;10.722;2023-10-19T15:42:42;11.40;99.90
14252;DHT22;7210;51.502;10.722;2023-10-19T15:45:12;11.40;99.90
14252;DHT22;7210;51.502;10.722;2023-10-19T15:47:39;11.50;99.90
14252;DHT22;7210;51.502;10.722;2023-10-19T15:50:08;11.50;99.90
14252;DHT22;7210;51.502;10.722;2023-10-19T15:52:35;11.50;99.90
14252;DHT22;7210;51.502;10.722;2023-10-19T15:55:08;11.50;99.90
14252;DHT22;7210;51.502;10.722;2023-10-19T15:57:36;11.40;99.90
14252;DHT22;7210;51.502;10.722;2023-10-19T16:00:04;11.50;99.90
14252;DHT22;7210;51.502;10.722;2023-10-19T16:02:34;11.40;99.90
14252;DHT22;7210;51.502;10.722;2023-10-19T16:05:01;11.40;99.90